createdAt,value
2022-09-06T00:01:10.900Z,7.56
2022-09-06T00:03:56.091Z,7.62
2022-09-06T00:06:40.839Z,7.72
2022-09-06T00:09:26.149Z,7.80
2022-09-06T00:12:10.813Z,7.88
2022-09-06T00:14:56.267Z,7.96
2022-09-06T00:17:41.335Z,8.02
2022-09-06T00:20:30.334Z,8.07
2022-09-06T00:23:15.334Z,8.12
2022-09-06T00:26:04.998Z,8.19
2022-09-06T00:28:49.932Z,8.23
2022-09-06T00:31:35.155Z,8.28
2022-09-06T00:34:19.938Z,8.31
2022-09-06T00:37:04.872Z,8.34
2022-09-06T00:39:49.931Z,8.36
2022-09-06T00:42:34.739Z,8.37
2022-09-06T00:45:20.340Z,8.36
2022-09-06T00:48:05.634Z,8.35
2022-09-06T00:50:58.525Z,8.34
2022-09-06T00:53:44.016Z,8.29
2022-09-06T00:56:30.960Z,8.25
2022-09-06T00:59:16.725Z,8.21
2022-09-06T01:02:02.265Z,8.17
2022-09-06T01:04:49.019Z,8.15
2022-09-06T01:07:45.887Z,8.12
2022-09-06T01:10:52.950Z,8.12
2022-09-06T01:13:47.543Z,8.10
2022-09-06T01:17:03.223Z,8.05
2022-09-06T01:19:48.086Z,8.02
2022-09-06T01:22:44.951Z,8.00
2022-09-06T01:25:45.940Z,8.01
2022-09-06T01:28:34.181Z,8.05
2022-09-06T01:31:25.853Z,8.10
2022-09-06T01:34:19.181Z,8.18
2022-09-06T01:37:17.380Z,8.24
2022-09-06T01:40:02.274Z,8.22
2022-09-06T01:42:49.079Z,8.24
2022-09-06T01:45:56.593Z,8.26
2022-09-06T01:49:12.730Z,8.29
2022-09-06T01:52:11.470Z,8.29
2022-09-06T01:55:12.824Z,8.31
2022-09-06T01:58:13.125Z,8.31
2022-09-06T02:01:14.191Z,8.29
2022-09-06T02:04:12.895Z,8.26
2022-09-06T02:07:10.367Z,8.24
2022-09-06T02:09:59.999Z,8.20
2022-09-06T02:12:49.572Z,8.15
2022-09-06T02:15:39.057Z,8.07
2022-09-06T02:18:31.343Z,7.94
2022-09-06T02:21:21.219Z,7.90
2022-09-06T02:24:11.555Z,7.86
2022-09-06T02:26:57.612Z,7.86
2022-09-06T02:29:42.275Z,7.87
2022-09-06T02:32:29.800Z,7.84
2022-09-06T02:35:16.460Z,7.85
2022-09-06T02:38:02.183Z,7.91
2022-09-06T02:40:48.081Z,7.97
2022-09-06T02:43:33.288Z,8.02
2022-09-06T02:46:18.228Z,8.07
2022-09-06T02:49:03.627Z,8.10
2022-09-06T02:51:48.776Z,8.13
2022-09-06T02:54:34.067Z,8.13
2022-09-06T02:57:19.679Z,8.17
2022-09-06T03:00:05.223Z,8.16
2022-09-06T03:02:50.120Z,8.19
2022-09-06T03:05:35.238Z,8.20
2022-09-06T03:08:23.138Z,8.22
2022-09-06T03:11:08.098Z,8.23
2022-09-06T03:13:53.418Z,8.24
2022-09-06T03:16:38.242Z,8.21
2022-09-06T03:19:23.191Z,8.19
2022-09-06T03:22:08.242Z,8.15
2022-09-06T03:24:53.607Z,8.13
2022-09-06T03:27:39.163Z,8.16
2022-09-06T03:30:24.201Z,8.20
2022-09-06T03:33:09.448Z,8.26
2022-09-06T03:36:00.050Z,8.30
2022-09-06T03:38:44.963Z,8.36
2022-09-06T03:41:29.981Z,8.37
2022-09-06T03:44:15.011Z,8.39
2022-09-06T03:46:59.899Z,8.43
2022-09-06T03:49:44.890Z,8.48
2022-09-06T03:52:29.952Z,8.52
2022-09-06T03:55:15.970Z,8.52
2022-09-06T03:58:00.806Z,8.54
2022-09-06T04:00:46.221Z,8.54
2022-09-06T04:03:31.601Z,8.58
2022-09-06T04:06:16.773Z,8.67
2022-09-06T04:09:01.874Z,8.75
2022-09-06T04:11:46.848Z,8.85
2022-09-06T04:14:32.396Z,8.94
2022-09-06T04:17:17.535Z,8.98
2022-09-06T04:20:04.092Z,9.08
2022-09-06T04:22:49.523Z,9.14
2022-09-06T04:25:34.664Z,9.22
2022-09-06T04:28:21.198Z,9.26
2022-09-06T04:31:05.963Z,9.33
2022-09-06T04:33:50.924Z,9.44
2022-09-06T04:36:36.767Z,9.53
2022-09-06T04:39:21.838Z,9.61
2022-09-06T04:42:06.989Z,9.62
2022-09-06T04:44:51.822Z,9.76
2022-09-06T04:47:36.983Z,9.82
2022-09-06T04:50:21.798Z,9.87
2022-09-06T04:53:07.698Z,9.95
2022-09-06T04:55:52.873Z,9.96
2022-09-06T04:58:37.788Z,10.02
2022-09-06T05:01:25.925Z,10.11
2022-09-06T05:04:10.972Z,10.17
2022-09-06T05:07:04.515Z,10.26
2022-09-06T05:09:50.062Z,10.36
2022-09-06T05:12:35.781Z,10.43
2022-09-06T05:15:22.371Z,10.46
2022-09-06T05:18:07.169Z,10.46
2022-09-06T05:20:53.535Z,10.52
2022-09-06T05:23:38.649Z,10.59
2022-09-06T05:26:24.056Z,10.66
2022-09-06T05:29:09.087Z,10.74
2022-09-06T05:31:54.866Z,10.82
2022-09-06T05:34:39.931Z,10.91
2022-09-06T05:37:25.088Z,11.01
2022-09-06T05:40:10.307Z,11.13
2022-09-06T05:42:55.527Z,11.21
2022-09-06T05:45:40.587Z,11.32
2022-09-06T05:48:25.639Z,11.42
2022-09-06T05:51:12.742Z,11.53
2022-09-06T05:53:58.046Z,11.52
2022-09-06T05:56:43.043Z,11.58
2022-09-06T05:59:28.388Z,11.61
2022-09-06T06:02:13.597Z,11.63
2022-09-06T06:04:58.600Z,11.73
2022-09-06T06:07:43.603Z,11.81
2022-09-06T06:10:28.627Z,11.89
2022-09-06T06:13:13.645Z,12.01
2022-09-06T06:15:59.158Z,12.10
2022-09-06T06:18:48.791Z,12.21
2022-09-06T06:21:40.563Z,12.38
2022-09-06T06:24:26.000Z,12.58
2022-09-06T06:27:13.022Z,12.82
2022-09-06T06:29:58.100Z,13.03
2022-09-06T06:32:43.057Z,13.30
2022-09-06T06:35:28.312Z,13.58
2022-09-06T06:38:15.225Z,13.79
2022-09-06T06:41:05.831Z,14.08
2022-09-06T06:43:56.642Z,14.29
2022-09-06T06:46:41.819Z,14.51
2022-09-06T06:49:27.874Z,14.62
2022-09-06T06:52:13.079Z,14.67
2022-09-06T06:54:58.371Z,14.67
2022-09-06T06:57:43.501Z,14.67
2022-09-06T07:00:36.494Z,14.60
2022-09-06T07:03:21.502Z,14.33
2022-09-06T07:08:52.598Z,14.34
2022-09-06T07:11:37.882Z,14.50
2022-09-06T07:14:23.029Z,14.62
2022-09-06T07:17:35.324Z,14.68
2022-09-06T07:20:21.968Z,14.70
2022-09-06T07:26:23.677Z,14.55
2022-09-06T07:29:08.761Z,14.43
2022-09-06T07:32:12.534Z,14.35
2022-09-06T07:34:57.898Z,14.26
2022-09-06T07:37:42.794Z,14.06
2022-09-06T07:40:30.203Z,13.88
2022-09-06T07:43:15.881Z,14.01
2022-09-06T07:46:03.719Z,14.16
2022-09-06T07:48:49.306Z,14.27
2022-09-06T07:51:34.473Z,14.51
2022-09-06T07:54:30.538Z,14.75
2022-09-06T07:57:16.385Z,14.89
2022-09-06T08:00:03.119Z,15.29
2022-09-06T08:02:56.957Z,15.73
2022-09-06T08:09:03.195Z,16.47
2022-09-06T08:11:50.768Z,16.66
2022-09-06T08:15:00.485Z,16.64
2022-09-06T08:17:48.292Z,16.55
2022-09-06T08:20:33.650Z,16.50
2022-09-06T08:23:18.357Z,16.68
2022-09-06T08:26:04.402Z,16.96
2022-09-06T08:28:59.653Z,17.21
2022-09-06T08:31:46.045Z,17.39
2022-09-06T08:34:35.360Z,17.54
2022-09-06T08:37:27.151Z,17.60
2022-09-06T08:40:18.801Z,17.75
2022-09-06T08:43:03.913Z,17.89
2022-09-06T08:46:57.832Z,17.96
2022-09-06T08:50:13.809Z,18.38
2022-09-06T08:53:23.566Z,18.72
2022-09-06T09:11:36.599Z,19.91
2022-09-06T09:21:01.274Z,20.63
2022-09-06T09:23:54.770Z,20.83
2022-09-06T09:26:47.419Z,21.12
2022-09-06T09:29:36.286Z,21.17
2022-09-06T09:32:39.165Z,21.18
2022-09-06T09:35:31.895Z,21.49
2022-09-06T09:38:23.977Z,22.24
2022-09-06T09:41:23.429Z,22.61
2022-09-06T09:44:18.507Z,22.75
2022-09-06T09:47:23.338Z,23.07
2022-09-06T09:50:28.372Z,23.06
2022-09-06T09:53:22.711Z,21.73
2022-09-06T09:56:10.287Z,21.16
2022-09-06T09:58:58.561Z,21.16
2022-09-06T10:10:29.093Z,21.27
2022-09-06T10:13:41.676Z,21.85
2022-09-06T10:16:44.763Z,22.52
2022-09-06T10:19:40.602Z,23.22
2022-09-06T10:22:50.643Z,23.75
2022-09-06T10:26:03.443Z,23.04
2022-09-06T10:29:41.154Z,22.68
2022-09-06T10:33:04.273Z,22.74
2022-09-06T10:35:56.616Z,23.10
2022-09-06T10:39:05.802Z,23.09
2022-09-06T10:42:29.186Z,22.63
2022-09-06T10:50:22.166Z,21.09
2022-09-06T10:53:34.570Z,20.38
2022-09-06T10:56:31.389Z,20.50
2022-09-06T10:59:38.781Z,20.72
2022-09-06T11:06:08.132Z,19.69
2022-09-06T11:09:00.105Z,19.23
2022-09-06T11:11:53.921Z,18.50
2022-09-06T11:14:42.962Z,18.49
2022-09-06T11:17:54.253Z,18.28
2022-09-06T11:20:47.202Z,18.49
2022-09-06T11:24:20.201Z,18.60
2022-09-06T11:27:19.387Z,18.71
2022-09-06T11:30:06.287Z,19.08
2022-09-06T11:33:28.380Z,19.17
2022-09-06T11:36:32.145Z,19.11
2022-09-06T11:42:48.347Z,19.74
2022-09-06T11:45:49.434Z,19.96
2022-09-06T11:48:48.594Z,20.11
2022-09-06T11:51:41.063Z,20.44
2022-09-06T11:54:44.502Z,20.62
2022-09-06T11:57:32.485Z,20.71
2022-09-06T12:00:23.238Z,20.73
2022-09-06T12:06:22.375Z,19.84
2022-09-06T12:09:28.317Z,19.68
2022-09-06T12:12:40.348Z,19.67
2022-09-06T12:15:31.745Z,19.77
2022-09-06T12:18:50.932Z,21.12
2022-09-06T12:21:51.619Z,23.40
2022-09-06T12:24:38.643Z,25.21
2022-09-06T12:27:26.409Z,27.10
2022-09-06T12:30:13.679Z,28.61
2022-09-06T12:33:00.168Z,29.59
2022-09-06T12:36:03.296Z,29.63
2022-09-06T12:38:57.470Z,29.41
2022-09-06T12:41:49.747Z,29.12
2022-09-06T12:44:43.039Z,29.03
2022-09-06T12:47:32.282Z,29.08
2022-09-06T12:50:23.451Z,28.10
2022-09-06T12:53:26.065Z,26.67
2022-09-06T12:56:12.023Z,27.38
2022-09-06T12:59:17.407Z,27.63
2022-09-06T13:02:12.376Z,26.41
2022-09-06T13:05:07.982Z,26.73
2022-09-06T13:07:55.296Z,26.61
2022-09-06T13:10:44.909Z,27.51
2022-09-06T13:13:29.919Z,28.57
2022-09-06T13:16:42.045Z,29.75
2022-09-06T13:19:34.243Z,30.44
2022-09-06T13:22:42.752Z,30.16
2022-09-06T13:25:28.068Z,30.23
2022-09-06T13:28:27.170Z,29.80
2022-09-06T13:31:18.544Z,28.89
2022-09-06T13:34:03.408Z,27.44
2022-09-06T13:36:52.978Z,26.60
2022-09-06T13:39:46.452Z,27.58
2022-09-06T13:42:36.047Z,28.64
2022-09-06T13:45:28.052Z,28.95
2022-09-06T13:48:36.286Z,28.79
2022-09-06T13:51:18.465Z,28.14
2022-09-06T13:54:13.939Z,28.19
2022-09-06T13:57:01.118Z,27.37
2022-09-06T13:59:46.060Z,27.25
2022-09-06T14:02:31.907Z,26.97
2022-09-06T14:05:17.721Z,25.17
2022-09-06T14:08:02.772Z,23.19
2022-09-06T14:10:47.825Z,22.26
2022-09-06T14:13:32.534Z,22.32
2022-09-06T14:16:17.591Z,22.77
2022-09-06T14:19:04.009Z,23.97
2022-09-06T14:21:49.207Z,25.02
2022-09-06T14:24:34.184Z,25.74
2022-09-06T14:27:19.141Z,26.59
2022-09-06T14:30:04.418Z,27.13
2022-09-06T14:32:49.526Z,27.34
2022-09-06T14:35:34.590Z,27.03
2022-09-06T14:38:19.464Z,25.38
2022-09-06T14:41:06.092Z,24.19
2022-09-06T14:43:53.831Z,25.33
2022-09-06T14:46:38.881Z,25.81
2022-09-06T14:49:24.322Z,26.27
2022-09-06T14:52:13.547Z,25.51
2022-09-06T14:54:58.825Z,24.32
2022-09-06T14:57:44.063Z,22.40
2022-09-06T15:00:29.109Z,21.46
2022-09-06T15:03:13.904Z,22.15
2022-09-06T15:05:58.767Z,22.69
2022-09-06T15:08:44.421Z,23.73
2022-09-06T15:11:36.211Z,24.42
2022-09-06T15:14:26.588Z,24.27
2022-09-06T15:17:12.615Z,24.51
2022-09-06T15:19:58.115Z,24.47
2022-09-06T15:22:43.448Z,24.40
2022-09-06T15:25:28.638Z,24.25
2022-09-06T15:28:14.724Z,23.96
2022-09-06T15:31:00.194Z,23.45
2022-09-06T15:33:45.761Z,23.16
2022-09-06T15:36:32.748Z,23.20
2022-09-06T15:39:18.597Z,23.02
2022-09-06T15:42:03.866Z,22.97
2022-09-06T15:44:48.740Z,23.17
2022-09-06T15:47:34.811Z,23.12
2022-09-06T15:50:40.630Z,23.02
2022-09-06T15:53:24.919Z,22.76
2022-09-06T15:56:12.544Z,22.64
2022-09-06T15:58:57.814Z,22.56
2022-09-06T16:01:42.753Z,22.34
2022-09-06T16:04:27.728Z,22.09
2022-09-06T16:07:13.274Z,21.72
2022-09-06T16:10:00.825Z,21.22
2022-09-06T16:12:49.981Z,20.67
2022-09-06T16:15:35.968Z,20.24
2022-09-06T16:18:20.861Z,19.75
2022-09-06T16:21:13.708Z,19.29
2022-09-06T16:24:02.785Z,18.67
2022-09-06T16:26:48.705Z,17.89
2022-09-06T16:29:33.935Z,16.78
2022-09-06T16:32:19.586Z,15.78
2022-09-06T16:35:06.927Z,15.06
2022-09-06T16:37:53.873Z,14.31
2022-09-06T16:40:44.763Z,13.50
2022-09-06T16:43:32.950Z,12.82
2022-09-06T16:46:19.142Z,12.25
2022-09-06T16:49:05.764Z,11.73
2022-09-06T16:51:50.636Z,11.32
2022-09-06T16:54:36.949Z,11.01
2022-09-06T16:57:22.684Z,10.70
2022-09-06T17:00:08.767Z,10.47
2022-09-06T17:03:15.718Z,10.22
2022-09-06T17:06:01.007Z,10.01
2022-09-06T17:08:47.011Z,9.85
2022-09-06T17:11:32.302Z,9.73
2022-09-06T17:14:18.223Z,9.62
2022-09-06T17:17:06.594Z,9.55
2022-09-06T17:19:51.860Z,9.51
2022-09-06T17:22:37.306Z,9.53
2022-09-06T17:25:22.693Z,9.56
2022-09-06T17:28:07.905Z,9.62
2022-09-06T17:30:53.087Z,9.69
2022-09-06T17:33:38.755Z,9.76
2022-09-06T17:36:29.990Z,9.86
2022-09-06T17:39:17.851Z,9.90
2022-09-06T17:42:03.575Z,9.97
2022-09-06T17:44:48.619Z,10.02
2022-09-06T17:47:34.705Z,10.04
2022-09-06T17:50:20.253Z,10.08
2022-09-06T17:53:05.180Z,10.15
2022-09-06T17:55:52.043Z,10.24
2022-09-06T17:58:38.445Z,10.37
2022-09-06T18:01:25.988Z,10.48
2022-09-06T18:04:13.053Z,10.58
2022-09-06T18:06:58.204Z,10.63
2022-09-06T18:09:43.662Z,10.67
2022-09-06T18:12:30.725Z,10.67
2022-09-06T18:15:15.868Z,10.64
2022-09-06T18:18:00.885Z,10.58
2022-09-06T18:20:46.764Z,10.51
2022-09-06T18:23:33.538Z,10.45
2022-09-06T18:26:18.686Z,10.34
2022-09-06T18:29:06.482Z,10.24
2022-09-06T18:31:53.711Z,10.11
2022-09-06T18:34:39.537Z,9.99
2022-09-06T18:37:25.595Z,9.83
2022-09-06T18:40:11.012Z,9.63
2022-09-06T18:42:55.793Z,9.42
2022-09-06T18:45:41.488Z,9.23
2022-09-06T18:48:28.525Z,9.10
2022-09-06T18:51:15.805Z,8.99
2022-09-06T18:54:01.541Z,8.89
2022-09-06T18:56:49.390Z,8.78
2022-09-06T18:59:34.568Z,8.65
2022-09-06T19:02:21.910Z,8.53
2022-09-06T19:05:06.944Z,8.42
2022-09-06T19:07:52.226Z,8.30
2022-09-06T19:10:37.108Z,8.20
2022-09-06T19:13:23.180Z,8.09
2022-09-06T19:16:09.727Z,7.96
2022-09-06T19:18:56.301Z,7.85
2022-09-06T19:21:42.583Z,7.76
2022-09-06T19:24:28.319Z,7.64
2022-09-06T19:27:13.826Z,7.53
2022-09-06T19:29:59.173Z,7.44
2022-09-06T19:32:44.087Z,7.36
2022-09-06T19:35:28.912Z,7.28
2022-09-06T19:38:14.244Z,7.25
2022-09-06T19:41:13.797Z,7.16
2022-09-06T19:43:59.953Z,7.09
2022-09-06T19:46:46.599Z,6.99
2022-09-06T19:49:31.972Z,6.89
2022-09-06T19:52:17.379Z,6.81
2022-09-06T19:55:02.495Z,6.76
2022-09-06T19:57:47.320Z,6.68
2022-09-06T20:00:35.563Z,6.60
2022-09-06T20:03:21.225Z,6.57
2022-09-06T20:06:07.567Z,6.56
2022-09-06T20:08:54.500Z,6.49
2022-09-06T20:11:40.721Z,6.46
2022-09-06T20:14:25.858Z,6.41
2022-09-06T20:17:32.189Z,6.37
2022-09-06T20:20:16.181Z,6.33
2022-09-06T20:23:01.599Z,6.24
2022-09-06T20:25:47.423Z,6.19
2022-09-06T20:28:33.774Z,6.13
2022-09-06T20:31:20.122Z,6.03
2022-09-06T20:34:06.095Z,5.96
2022-09-06T20:36:50.917Z,5.90
2022-09-06T20:39:36.168Z,5.90
2022-09-06T20:42:21.027Z,5.88
2022-09-06T20:45:06.729Z,5.83
2022-09-06T20:47:52.198Z,5.79
2022-09-06T20:50:37.509Z,5.70
2022-09-06T20:53:22.624Z,5.63
2022-09-06T20:56:11.610Z,5.58
2022-09-06T20:59:01.930Z,5.50
2022-09-06T21:01:47.470Z,5.46
2022-09-06T21:04:32.817Z,5.42
2022-09-06T21:07:18.021Z,5.38
2022-09-06T21:10:03.326Z,5.35
2022-09-06T21:12:49.706Z,5.38
2022-09-06T21:15:36.766Z,5.38
2022-09-06T21:18:22.850Z,5.35
2022-09-06T21:21:08.884Z,5.33
2022-09-06T21:23:54.972Z,5.30
2022-09-06T21:26:42.610Z,5.28
2022-09-06T21:29:27.476Z,5.25
2022-09-06T21:32:13.186Z,5.24
2022-09-06T21:34:58.312Z,5.21
2022-09-06T21:37:43.178Z,5.18
2022-09-06T21:40:28.058Z,5.16
2022-09-06T21:43:13.100Z,5.14
2022-09-06T21:46:10.578Z,5.15
2022-09-06T21:48:55.885Z,5.13
2022-09-06T21:51:41.220Z,5.10
2022-09-06T21:54:26.536Z,5.05
2022-09-06T21:57:11.548Z,4.98
2022-09-06T21:59:56.457Z,4.89
2022-09-06T22:02:42.335Z,4.82
2022-09-06T22:05:27.703Z,4.79
2022-09-06T22:08:13.295Z,4.81
2022-09-06T22:11:17.246Z,4.75
2022-09-06T22:14:03.578Z,4.71
2022-09-06T22:16:48.468Z,4.70
2022-09-06T22:19:33.731Z,4.69
2022-09-06T22:22:18.947Z,4.65
2022-09-06T22:25:04.219Z,4.61
2022-09-06T22:27:49.519Z,4.52
2022-09-06T22:30:34.492Z,4.47
2022-09-06T22:33:19.553Z,4.45
2022-09-06T22:36:05.373Z,4.43
2022-09-06T22:39:00.223Z,4.42
2022-09-06T22:41:45.266Z,4.39
2022-09-06T22:44:30.493Z,4.37
2022-09-06T22:47:15.968Z,4.29
2022-09-06T22:50:00.803Z,4.27
2022-09-06T22:52:45.938Z,4.27
2022-09-06T22:55:30.795Z,4.29
2022-09-06T22:58:15.707Z,4.30
2022-09-06T23:01:27.564Z,4.30
2022-09-06T23:04:12.558Z,4.36
2022-09-06T23:06:59.013Z,4.41
2022-09-06T23:09:44.516Z,4.43
2022-09-06T23:12:29.146Z,4.53
2022-09-06T23:15:14.442Z,4.55
2022-09-06T23:17:59.491Z,4.56
2022-09-06T23:20:44.458Z,4.50
2022-09-06T23:23:30.536Z,4.47
2022-09-06T23:26:20.791Z,4.40
2022-09-06T23:29:05.780Z,4.33
2022-09-06T23:31:50.591Z,4.29
2022-09-06T23:34:36.535Z,4.23
2022-09-06T23:37:21.999Z,4.23
2022-09-06T23:40:09.233Z,4.23
2022-09-06T23:42:54.249Z,4.26
2022-09-06T23:45:39.264Z,4.32
2022-09-06T23:48:24.724Z,4.33
2022-09-06T23:51:11.212Z,4.39
2022-09-06T23:53:56.169Z,4.35
2022-09-06T23:56:41.120Z,4.33
2022-09-06T23:59:25.977Z,4.28
